sensor_id;sensor_type;location;lat;lon;timestamp;pressure;altitude;pressure_sealevel;temperature;humidity
54994;BME280;40891;47.242;8.648;2022-07-29T00:01:17;96246.16;;;20.72;79.57
54994;BME280;40891;47.242;8.648;2022-07-29T00:03:43;96241.53;;;20.69;78.62
54994;BME280;40891;47.242;8.648;2022-07-29T00:06:08;96250.75;;;20.75;78.26
54994;BME280;40891;47.242;8.648;2022-07-29T00:08:33;96235.84;;;20.74;78.08
54994;BME280;40891;47.242;8.648;2022-07-29T00:10:59;96236.31;;;20.84;77.52
54994;BME280;40891;47.242;8.648;2022-07-29T00:13:24;96227.31;;;20.80;77.97
54994;BME280;40891;47.242;8.648;2022-07-29T00:15:49;96222.94;;;20.84;77.04
54994;BME280;40891;47.242;8.648;2022-07-29T00:18:15;96214.25;;;20.77;77.80
54994;BME280;40891;47.242;8.648;2022-07-29T00:20:40;96221.19;;;20.76;78.09
54994;BME280;40891;47.242;8.648;2022-07-29T00:23:05;96221.66;;;20.80;78.36
54994;BME280;40891;47.242;8.648;2022-07-29T00:25:30;96223.53;;;20.72;80.14
54994;BME280;40891;47.242;8.648;2022-07-29T00:27:56;96218.22;;;20.63;80.27
54994;BME280;40891;47.242;8.648;2022-07-29T00:30:22;96213.38;;;20.58;80.02
54994;BME280;40891;47.242;8.648;2022-07-29T00:32:47;96213.69;;;20.49;80.93
54994;BME280;40891;47.242;8.648;2022-07-29T00:35:12;96211.13;;;20.45;80.57
54994;BME280;40891;47.242;8.648;2022-07-29T00:37:56;96214.00;;;20.40;82.47
54994;BME280;40891;47.242;8.648;2022-07-29T00:40:21;96210.66;;;20.35;82.77
54994;BME280;40891;47.242;8.648;2022-07-29T00:42:50;96208.91;;;20.21;83.04
54994;BME280;40891;47.242;8.648;2022-07-29T00:45:16;96212.53;;;20.16;83.38
54994;BME280;40891;47.242;8.648;2022-07-29T00:47:42;96214.84;;;20.23;82.34
54994;BME280;40891;47.242;8.648;2022-07-29T00:50:09;96211.75;;;20.21;81.57
54994;BME280;40891;47.242;8.648;2022-07-29T00:52:36;96209.16;;;20.34;81.33
54994;BME280;40891;47.242;8.648;2022-07-29T00:55:04;96202.19;;;20.35;80.74
54994;BME280;40891;47.242;8.648;2022-07-29T00:57:31;96198.09;;;20.31;80.88
54994;BME280;40891;47.242;8.648;2022-07-29T00:59:57;96200.41;;;20.32;81.09
54994;BME280;40891;47.242;8.648;2022-07-29T01:02:22;96196.38;;;20.22;82.58
54994;BME280;40891;47.242;8.648;2022-07-29T01:04:48;96200.50;;;20.16;83.37
54994;BME280;40891;47.242;8.648;2022-07-29T01:07:14;96199.72;;;20.10;83.66
54994;BME280;40891;47.242;8.648;2022-07-29T01:09:40;96195.63;;;20.11;80.96
54994;BME280;40891;47.242;8.648;2022-07-29T01:12:07;96186.59;;;20.23;80.28
54994;BME280;40891;47.242;8.648;2022-07-29T01:14:33;96181.47;;;20.22;79.47
54994;BME280;40891;47.242;8.648;2022-07-29T01:17:04;96176.84;;;20.19;79.55
54994;BME280;40891;47.242;8.648;2022-07-29T01:22:41;96173.78;;;20.17;79.36
54994;BME280;40891;47.242;8.648;2022-07-29T01:28:19;96176.06;;;20.18;79.75
54994;BME280;40891;47.242;8.648;2022-07-29T01:30:50;96169.69;;;20.12;80.65
54994;BME280;40891;47.242;8.648;2022-07-29T01:33:18;96171.97;;;20.14;80.11
54994;BME280;40891;47.242;8.648;2022-07-29T01:36:12;96175.88;;;20.11;80.67
54994;BME280;40891;47.242;8.648;2022-07-29T01:38:39;96170.00;;;20.03;80.88
54994;BME280;40891;47.242;8.648;2022-07-29T01:41:13;96173.31;;;20.02;80.48
54994;BME280;40891;47.242;8.648;2022-07-29T01:46:22;96183.94;;;19.85;81.62
54994;BME280;40891;47.242;8.648;2022-07-29T01:48:57;96185.97;;;19.90;81.39
54994;BME280;40891;47.242;8.648;2022-07-29T01:51:58;96181.06;;;19.96;82.52
54994;BME280;40891;47.242;8.648;2022-07-29T01:54:43;96173.69;;;19.87;83.69
54994;BME280;40891;47.242;8.648;2022-07-29T01:57:16;96168.06;;;19.76;83.70
54994;BME280;40891;47.242;8.648;2022-07-29T01:59:43;96168.34;;;19.73;84.38
54994;BME280;40891;47.242;8.648;2022-07-29T02:02:11;96170.69;;;19.63;84.08
54994;BME280;40891;47.242;8.648;2022-07-29T02:04:39;96175.84;;;19.53;84.86
54994;BME280;40891;47.242;8.648;2022-07-29T02:07:07;96178.69;;;19.42;83.94
54994;BME280;40891;47.242;8.648;2022-07-29T02:09:36;96179.44;;;19.43;84.25
54994;BME280;40891;47.242;8.648;2022-07-29T02:12:03;96187.66;;;19.41;85.41
54994;BME280;40891;47.242;8.648;2022-07-29T02:14:37;96178.69;;;19.31;84.87
54994;BME280;40891;47.242;8.648;2022-07-29T02:17:03;96175.84;;;19.31;85.00
54994;BME280;40891;47.242;8.648;2022-07-29T02:19:31;96176.09;;;19.33;84.92
54994;BME280;40891;47.242;8.648;2022-07-29T02:21:58;96182.53;;;19.34;85.92
54994;BME280;40891;47.242;8.648;2022-07-29T02:24:25;96187.16;;;19.26;85.32
54994;BME280;40891;47.242;8.648;2022-07-29T02:26:53;96182.53;;;19.34;84.54
54994;BME280;40891;47.242;8.648;2022-07-29T02:29:22;96177.94;;;19.20;86.20
54994;BME280;40891;47.242;8.648;2022-07-29T02:31:49;96178.22;;;19.16;85.39
54994;BME280;40891;47.242;8.648;2022-07-29T02:34:17;96177.19;;;19.08;86.36
54994;BME280;40891;47.242;8.648;2022-07-29T02:36:44;96187.19;;;18.98;86.89
54994;BME280;40891;47.242;8.648;2022-07-29T02:39:12;96188.47;;;18.91;86.62
54994;BME280;40891;47.242;8.648;2022-07-29T02:41:50;96188.22;;;18.84;87.13
54994;BME280;40891;47.242;8.648;2022-07-29T02:44:24;96191.81;;;18.84;86.88
54994;BME280;40891;47.242;8.648;2022-07-29T02:46:53;96194.38;;;18.82;87.48
54994;BME280;40891;47.242;8.648;2022-07-29T02:51:57;96182.59;;;18.95;86.55
54994;BME280;40891;47.242;8.648;2022-07-29T02:54:37;96173.63;;;18.80;87.05
54994;BME280;40891;47.242;8.648;2022-07-29T02:57:11;96186.94;;;18.68;87.36
54994;BME280;40891;47.242;8.648;2022-07-29T02:59:38;96175.16;;;18.70;87.88
54994;BME280;40891;47.242;8.648;2022-07-29T03:02:06;96185.41;;;18.62;88.11
54994;BME280;40891;47.242;8.648;2022-07-29T03:04:34;96182.59;;;18.62;87.55
54994;BME280;40891;47.242;8.648;2022-07-29T03:07:00;96188.72;;;18.60;86.77
54994;BME280;40891;47.242;8.648;2022-07-29T03:09:26;96188.47;;;18.58;87.22
54994;BME280;40891;47.242;8.648;2022-07-29T03:11:53;96194.09;;;18.58;87.71
54994;BME280;40891;47.242;8.648;2022-07-29T03:14:20;96188.22;;;18.56;87.55
54994;BME280;40891;47.242;8.648;2022-07-29T03:16:46;96188.97;;;18.57;88.38
54994;BME280;40891;47.242;8.648;2022-07-29T03:19:12;96199.22;;;18.60;88.71
54994;BME280;40891;47.242;8.648;2022-07-29T03:21:38;96210.50;;;18.60;88.21
54994;BME280;40891;47.242;8.648;2022-07-29T03:24:03;96210.00;;;18.67;87.77
54994;BME280;40891;47.242;8.648;2022-07-29T03:26:29;96203.31;;;18.70;88.70
54994;BME280;40891;47.242;8.648;2022-07-29T03:28:54;96207.66;;;18.76;87.40
54994;BME280;40891;47.242;8.648;2022-07-29T03:31:20;96218.94;;;18.76;87.39
54994;BME280;40891;47.242;8.648;2022-07-29T03:33:45;96221.00;;;18.81;87.42
54994;BME280;40891;47.242;8.648;2022-07-29T03:36:10;96231.25;;;18.90;86.84
54994;BME280;40891;47.242;8.648;2022-07-29T03:38:36;96233.56;;;18.91;86.78
54994;BME280;40891;47.242;8.648;2022-07-29T03:41:10;96238.94;;;18.89;87.00
54994;BME280;40891;47.242;8.648;2022-07-29T03:43:38;96233.31;;;18.95;85.73
54994;BME280;40891;47.242;8.648;2022-07-29T03:46:06;96220.00;;;19.07;85.73
54994;BME280;40891;47.242;8.648;2022-07-29T03:48:34;96215.88;;;19.08;85.37
54994;BME280;40891;47.242;8.648;2022-07-29T03:51:01;96211.50;;;19.12;84.79
54994;BME280;40891;47.242;8.648;2022-07-29T03:53:27;96212.28;;;19.13;85.27
54994;BME280;40891;47.242;8.648;2022-07-29T03:55:55;96219.22;;;19.06;84.32
54994;BME280;40891;47.242;8.648;2022-07-29T03:58:23;96230.22;;;18.98;86.12
54994;BME280;40891;47.242;8.648;2022-07-29T04:00:52;96233.53;;;19.02;85.28
54994;BME280;40891;47.242;8.648;2022-07-29T04:03:17;96232.78;;;19.08;84.89
54994;BME280;40891;47.242;8.648;2022-07-29T04:05:43;96224.34;;;19.13;84.42
54994;BME280;40891;47.242;8.648;2022-07-29T04:08:09;96233.53;;;19.02;85.32
54994;BME280;40891;47.242;8.648;2022-07-29T04:10:34;96237.66;;;19.01;86.27
54994;BME280;40891;47.242;8.648;2022-07-29T04:12:59;96235.59;;;19.08;86.41
54994;BME280;40891;47.242;8.648;2022-07-29T04:15:25;96225.34;;;19.16;87.57
54994;BME280;40891;47.242;8.648;2022-07-29T04:17:50;96226.88;;;19.22;91.60
54994;BME280;40891;47.242;8.648;2022-07-29T04:20:16;96208.19;;;19.36;88.69
54994;BME280;40891;47.242;8.648;2022-07-29T04:22:41;96203.31;;;19.25;91.99
54994;BME280;40891;47.242;8.648;2022-07-29T04:25:07;96212.81;;;19.06;93.07
54994;BME280;40891;47.242;8.648;2022-07-29T04:27:32;96221.50;;;18.91;96.30
54994;BME280;40891;47.242;8.648;2022-07-29T04:29:58;96218.44;;;19.00;96.11
54994;BME280;40891;47.242;8.648;2022-07-29T04:32:24;96213.06;;;19.13;95.43
54994;BME280;40891;47.242;8.648;2022-07-29T04:34:50;96211.00;;;19.02;95.61
54994;BME280;40891;47.242;8.648;2022-07-29T04:37:15;96210.75;;;18.89;95.79
54994;BME280;40891;47.242;8.648;2022-07-29T04:39:40;96203.59;;;18.99;96.26
54994;BME280;40891;47.242;8.648;2022-07-29T04:42:06;96202.56;;;19.14;91.92
54994;BME280;40891;47.242;8.648;2022-07-29T04:44:31;96199.97;;;19.10;92.73
54994;BME280;40891;47.242;8.648;2022-07-29T04:46:56;96205.88;;;19.12;92.61
54994;BME280;40891;47.242;8.648;2022-07-29T04:49:22;96207.44;;;19.19;92.19
54994;BME280;40891;47.242;8.648;2022-07-29T04:51:47;96197.69;;;19.14;93.12
54994;BME280;40891;47.242;8.648;2022-07-29T04:54:12;96202.81;;;19.10;95.16
54994;BME280;40891;47.242;8.648;2022-07-29T04:56:38;96184.59;;;19.17;95.35
54994;BME280;40891;47.242;8.648;2022-07-29T04:59:03;96210.75;;;19.00;95.73
54994;BME280;40891;47.242;8.648;2022-07-29T05:01:28;96225.09;;;19.02;94.61
54994;BME280;40891;47.242;8.648;2022-07-29T05:03:54;96217.66;;;19.11;96.01
54994;BME280;40891;47.242;8.648;2022-07-29T05:06:19;96215.59;;;19.17;96.95
54994;BME280;40891;47.242;8.648;2022-07-29T05:08:44;96209.19;;;19.27;97.64
54994;BME280;40891;47.242;8.648;2022-07-29T05:11:09;96202.00;;;19.32;90.96
54994;BME280;40891;47.242;8.648;2022-07-29T05:13:35;96207.13;;;19.50;90.09
54994;BME280;40891;47.242;8.648;2022-07-29T05:16:01;96195.31;;;19.57;90.09
54994;BME280;40891;47.242;8.648;2022-07-29T05:18:26;96187.09;;;19.64;89.90
54994;BME280;40891;47.242;8.648;2022-07-29T05:20:52;96193.22;;;19.74;89.71
54994;BME280;40891;47.242;8.648;2022-07-29T05:23:17;96190.63;;;19.82;89.38
54994;BME280;40891;47.242;8.648;2022-07-29T05:25:42;96191.63;;;19.90;88.36
54994;BME280;40891;47.242;8.648;2022-07-29T05:28:08;96196.50;;;19.89;88.61
54994;BME280;40891;47.242;8.648;2022-07-29T05:30:33;96193.16;;;19.91;87.70
54994;BME280;40891;47.242;8.648;2022-07-29T05:32:58;96202.63;;;19.93;88.12
54994;BME280;40891;47.242;8.648;2022-07-29T05:35:23;96197.28;;;19.90;88.03
54994;BME280;40891;47.242;8.648;2022-07-29T05:37:49;96205.44;;;19.93;86.81
54994;BME280;40891;47.242;8.648;2022-07-29T05:40:14;96204.66;;;19.98;88.11
54994;BME280;40891;47.242;8.648;2022-07-29T05:42:39;96209.00;;;20.05;88.41
54994;BME280;40891;47.242;8.648;2022-07-29T05:45:05;96207.16;;;20.13;88.28
54994;BME280;40891;47.242;8.648;2022-07-29T05:47:31;96206.34;;;20.23;87.22
54994;BME280;40891;47.242;8.648;2022-07-29T05:49:56;96212.53;;;20.27;86.95
54994;BME280;40891;47.242;8.648;2022-07-29T05:52:22;96209.09;;;20.40;86.54
54994;BME280;40891;47.242;8.648;2022-07-29T05:54:47;96211.03;;;20.56;86.50
54994;BME280;40891;47.242;8.648;2022-07-29T05:57:20;96212.50;;;20.68;87.55
54994;BME280;40891;47.242;8.648;2022-07-29T05:59:46;96200.38;;;20.79;84.46
54994;BME280;40891;47.242;8.648;2022-07-29T06:02:11;96206.69;;;20.90;83.83
54994;BME280;40891;47.242;8.648;2022-07-29T06:04:37;96213.59;;;20.95;82.15
54994;BME280;40891;47.242;8.648;2022-07-29T06:07:02;96215.31;;;21.03;82.79
54994;BME280;40891;47.242;8.648;2022-07-29T06:09:27;96217.59;;;21.11;83.37
54994;BME280;40891;47.242;8.648;2022-07-29T06:11:52;96217.59;;;21.11;83.76
54994;BME280;40891;47.242;8.648;2022-07-29T06:14:18;96211.41;;;21.18;80.63
54994;BME280;40891;47.242;8.648;2022-07-29T06:16:43;96216.31;;;21.12;80.50
54994;BME280;40891;47.242;8.648;2022-07-29T06:19:09;96226.16;;;20.99;81.73
54994;BME280;40891;47.242;8.648;2022-07-29T06:21:34;96240.63;;;20.90;83.32
54994;BME280;40891;47.242;8.648;2022-07-29T06:24:00;96257.63;;;20.85;82.89
54994;BME280;40891;47.242;8.648;2022-07-29T06:26:25;96255.59;;;20.80;84.33
54994;BME280;40891;47.242;8.648;2022-07-29T06:28:50;96252.19;;;20.87;77.75
54994;BME280;40891;47.242;8.648;2022-07-29T06:31:16;96265.91;;;20.77;80.49
54994;BME280;40891;47.242;8.648;2022-07-29T06:33:41;96272.34;;;20.72;84.83
54994;BME280;40891;47.242;8.648;2022-07-29T06:36:07;96279.03;;;20.75;81.62
54994;BME280;40891;47.242;8.648;2022-07-29T06:38:33;96288.47;;;20.83;81.60
54994;BME280;40891;47.242;8.648;2022-07-29T06:40:59;96303.28;;;20.54;83.66
54994;BME280;40891;47.242;8.648;2022-07-29T06:43:28;96319.84;;;20.27;86.36
54994;BME280;40891;47.242;8.648;2022-07-29T06:45:57;96331.91;;;20.11;85.72
54994;BME280;40891;47.242;8.648;2022-07-29T06:48:22;96334.22;;;20.02;84.20
54994;BME280;40891;47.242;8.648;2022-07-29T06:50:47;96330.91;;;20.03;84.80
54994;BME280;40891;47.242;8.648;2022-07-29T06:53:13;96320.34;;;20.09;85.95
54994;BME280;40891;47.242;8.648;2022-07-29T06:55:38;96332.47;;;19.99;85.63
54994;BME280;40891;47.242;8.648;2022-07-29T06:58:03;96327.06;;;19.95;87.09
54994;BME280;40891;47.242;8.648;2022-07-29T07:00:29;96335.28;;;19.93;87.63
54994;BME280;40891;47.242;8.648;2022-07-29T07:02:54;96340.69;;;19.86;88.23
54994;BME280;40891;47.242;8.648;2022-07-29T07:05:19;96337.88;;;19.80;90.58
54994;BME280;40891;47.242;8.648;2022-07-29T07:07:45;96327.88;;;19.85;92.63
54994;BME280;40891;47.242;8.648;2022-07-29T07:10:10;96323.50;;;19.78;93.68
54994;BME280;40891;47.242;8.648;2022-07-29T07:12:35;96322.75;;;19.78;94.24
54994;BME280;40891;47.242;8.648;2022-07-29T07:15:00;96314.25;;;19.83;95.46
54994;BME280;40891;47.242;8.648;2022-07-29T07:17:26;96324.00;;;19.88;94.92
54994;BME280;40891;47.242;8.648;2022-07-29T07:19:51;96324.03;;;19.82;96.46
54994;BME280;40891;47.242;8.648;2022-07-29T07:22:16;96311.69;;;19.96;94.91
54994;BME280;40891;47.242;8.648;2022-07-29T07:24:42;96312.41;;;20.02;95.74
54994;BME280;40891;47.242;8.648;2022-07-29T07:27:07;96310.91;;;20.01;95.03
54994;BME280;40891;47.242;8.648;2022-07-29T07:29:32;96293.63;;;20.21;94.46
54994;BME280;40891;47.242;8.648;2022-07-29T07:31:58;96292.31;;;20.39;94.32
54994;BME280;40891;47.242;8.648;2022-07-29T07:34:23;96291.44;;;20.61;94.16
54994;BME280;40891;47.242;8.648;2022-07-29T07:36:48;96295.75;;;20.67;93.94
54994;BME280;40891;47.242;8.648;2022-07-29T07:39:14;96305.81;;;20.63;94.50
54994;BME280;40891;47.242;8.648;2022-07-29T07:41:39;96301.44;;;20.62;93.35
54994;BME280;40891;47.242;8.648;2022-07-29T07:44:04;96313.69;;;20.75;92.43
54994;BME280;40891;47.242;8.648;2022-07-29T07:46:30;96311.22;;;20.61;93.96
54994;BME280;40891;47.242;8.648;2022-07-29T07:48:55;96323.56;;;20.52;94.53
54994;BME280;40891;47.242;8.648;2022-07-29T07:51:20;96329.28;;;20.41;95.53
54994;BME280;40891;47.242;8.648;2022-07-29T07:53:46;96324.41;;;20.30;95.35
54994;BME280;40891;47.242;8.648;2022-07-29T07:56:15;96313.41;;;20.27;98.19
54994;BME280;40891;47.242;8.648;2022-07-29T07:58:40;96314.44;;;20.24;100.00
54994;BME280;40891;47.242;8.648;2022-07-29T08:01:06;96314.38;;;20.35;96.84
54994;BME280;40891;47.242;8.648;2022-07-29T08:03:32;96308.50;;;20.33;96.05
54994;BME280;40891;47.242;8.648;2022-07-29T08:05:57;96309.28;;;20.28;93.53
54994;BME280;40891;47.242;8.648;2022-07-29T08:08:23;96311.31;;;20.39;91.96
54994;BME280;40891;47.242;8.648;2022-07-29T08:10:48;96315.94;;;20.36;92.84
54994;BME280;40891;47.242;8.648;2022-07-29T08:13:17;96321.28;;;20.45;92.88
54994;BME280;40891;47.242;8.648;2022-07-29T08:15:43;96320.47;;;20.56;94.17
54994;BME280;40891;47.242;8.648;2022-07-29T08:18:11;96326.25;;;20.80;96.03
54994;BME280;40891;47.242;8.648;2022-07-29T08:20:36;96318.41;;;21.08;94.42
54994;BME280;40891;47.242;8.648;2022-07-29T08:23:03;96322.13;;;21.27;92.91
54994;BME280;40891;47.242;8.648;2022-07-29T08:25:29;96330.41;;;21.20;90.68
54994;BME280;40891;47.242;8.648;2022-07-29T08:27:55;96326.22;;;21.32;92.26
54994;BME280;40891;47.242;8.648;2022-07-29T08:30:20;96333.75;;;21.18;89.40
54994;BME280;40891;47.242;8.648;2022-07-29T08:32:47;96331.72;;;21.13;87.96
54994;BME280;40891;47.242;8.648;2022-07-29T08:35:13;96339.91;;;21.22;87.81
54994;BME280;40891;47.242;8.648;2022-07-29T08:37:38;96340.06;;;21.35;87.64
54994;BME280;40891;47.242;8.648;2022-07-29T08:40:04;96339.78;;;21.39;87.33
54994;BME280;40891;47.242;8.648;2022-07-29T08:42:31;96343.19;;;21.61;84.87
54994;BME280;40891;47.242;8.648;2022-07-29T08:44:57;96341.56;;;21.72;85.38
54994;BME280;40891;47.242;8.648;2022-07-29T08:47:23;96330.00;;;21.99;85.17
54994;BME280;40891;47.242;8.648;2022-07-29T08:49:51;96338.38;;;22.34;86.30
54994;BME280;40891;47.242;8.648;2022-07-29T08:52:16;96334.75;;;22.58;84.19
54994;BME280;40891;47.242;8.648;2022-07-29T08:54:43;96330.41;;;22.57;82.97
54994;BME280;40891;47.242;8.648;2022-07-29T08:57:12;96332.97;;;22.55;81.65
54994;BME280;40891;47.242;8.648;2022-07-29T08:59:40;96322.28;;;22.67;80.61
54994;BME280;40891;47.242;8.648;2022-07-29T09:02:15;96323.28;;;23.25;77.85
54994;BME280;40891;47.242;8.648;2022-07-29T09:04:43;96327.91;;;23.60;79.33
54994;BME280;40891;47.242;8.648;2022-07-29T09:07:10;96319.03;;;23.95;75.92
54994;BME280;40891;47.242;8.648;2022-07-29T09:09:40;96321.50;;;24.17;72.68
54994;BME280;40891;47.242;8.648;2022-07-29T09:12:05;96314.81;;;24.54;73.83
54994;BME280;40891;47.242;8.648;2022-07-29T09:14:33;96312.31;;;24.77;71.00
54994;BME280;40891;47.242;8.648;2022-07-29T09:16:59;96316.03;;;24.72;71.91
54994;BME280;40891;47.242;8.648;2022-07-29T09:19:33;96324.34;;;24.44;70.52
54994;BME280;40891;47.242;8.648;2022-07-29T09:22:01;96319.53;;;24.39;70.64
54994;BME280;40891;47.242;8.648;2022-07-29T09:24:42;96319.22;;;24.55;72.17
54994;BME280;40891;47.242;8.648;2022-07-29T09:27:17;96321.84;;;24.53;71.46
54994;BME280;40891;47.242;8.648;2022-07-29T09:29:44;96326.53;;;24.64;69.85
54994;BME280;40891;47.242;8.648;2022-07-29T09:32:10;96314.81;;;24.54;72.81
54994;BME280;40891;47.242;8.648;2022-07-29T09:34:38;96312.75;;;24.81;69.07
54994;BME280;40891;47.242;8.648;2022-07-29T09:37:04;96311.63;;;24.97;68.56
54994;BME280;40891;47.242;8.648;2022-07-29T09:39:34;96304.88;;;25.21;68.03
54994;BME280;40891;47.242;8.648;2022-07-29T09:42:05;96307.22;;;25.30;69.97
54994;BME280;40891;47.242;8.648;2022-07-29T09:44:48;96310.94;;;25.38;64.82
54994;BME280;40891;47.242;8.648;2022-07-29T09:47:15;96307.69;;;25.34;65.84
54994;BME280;40891;47.242;8.648;2022-07-29T09:49:51;96320.28;;;25.59;68.35
54994;BME280;40891;47.242;8.648;2022-07-29T09:52:17;96324.50;;;26.07;66.49
54994;BME280;40891;47.242;8.648;2022-07-29T09:54:43;96314.28;;;26.68;64.34
54994;BME280;40891;47.242;8.648;2022-07-29T09:57:21;96301.91;;;26.65;61.69
54994;BME280;40891;47.242;8.648;2022-07-29T10:00:00;96293.50;;;26.95;61.44
54994;BME280;40891;47.242;8.648;2022-07-29T10:02:34;96301.66;;;26.91;62.09
54994;BME280;40891;47.242;8.648;2022-07-29T10:05:01;96296.13;;;26.78;61.76
54994;BME280;40891;47.242;8.648;2022-07-29T10:07:43;96301.13;;;26.57;62.72
54994;BME280;40891;47.242;8.648;2022-07-29T10:10:09;96303.88;;;26.42;59.71
54994;BME280;40891;47.242;8.648;2022-07-29T10:12:48;96296.94;;;26.30;61.62
54994;BME280;40891;47.242;8.648;2022-07-29T10:15:15;96298.03;;;25.99;62.43
54994;BME280;40891;47.242;8.648;2022-07-29T10:17:41;96298.66;;;25.84;62.18
54994;BME280;40891;47.242;8.648;2022-07-29T10:20:07;96297.97;;;25.71;63.29
54994;BME280;40891;47.242;8.648;2022-07-29T10:22:33;96283.16;;;25.93;60.65
54994;BME280;40891;47.242;8.648;2022-07-29T10:24:59;96290.22;;;26.20;60.72
54994;BME280;40891;47.242;8.648;2022-07-29T10:27:24;96286.47;;;26.61;61.35
54994;BME280;40891;47.242;8.648;2022-07-29T10:29:50;96278.75;;;27.20;58.52
54994;BME280;40891;47.242;8.648;2022-07-29T10:32:25;96280.19;;;27.72;56.58
54994;BME280;40891;47.242;8.648;2022-07-29T10:43:53;96278.13;;;28.87;49.42
54994;BME280;40891;47.242;8.648;2022-07-29T10:46:20;96268.44;;;29.23;49.92
54994;BME280;40891;47.242;8.648;2022-07-29T10:51:52;96265.00;;;29.24;46.11
54994;BME280;40891;47.242;8.648;2022-07-29T10:54:19;96267.38;;;30.17;45.97
54994;BME280;40891;47.242;8.648;2022-07-29T11:07:33;96259.94;;;31.34;41.90
54994;BME280;40891;47.242;8.648;2022-07-29T11:12:48;96273.53;;;30.38;48.36
54994;BME280;40891;47.242;8.648;2022-07-29T11:15:18;96260.78;;;29.57;49.90
54994;BME280;40891;47.242;8.648;2022-07-29T11:18:03;96271.72;;;28.57;50.35
54994;BME280;40891;47.242;8.648;2022-07-29T11:20:43;96279.19;;;28.45;51.62
54994;BME280;40891;47.242;8.648;2022-07-29T11:23:30;96275.78;;;27.86;54.77
54994;BME280;40891;47.242;8.648;2022-07-29T11:28:51;96264.00;;;26.85;56.92
54994;BME280;40891;47.242;8.648;2022-07-29T11:31:31;96262.56;;;26.71;57.61
54994;BME280;40891;47.242;8.648;2022-07-29T11:39:31;96264.47;;;26.33;59.45
54994;BME280;40891;47.242;8.648;2022-07-29T11:47:26;96262.66;;;25.94;51.33
54994;BME280;40891;47.242;8.648;2022-07-29T11:49:54;96264.66;;;26.07;55.23
54994;BME280;40891;47.242;8.648;2022-07-29T11:52:20;96264.66;;;26.07;54.14
54994;BME280;40891;47.242;8.648;2022-07-29T11:54:50;96275.28;;;26.06;56.21
54994;BME280;40891;47.242;8.648;2022-07-29T11:57:17;96268.88;;;25.64;53.40
54994;BME280;40891;47.242;8.648;2022-07-29T11:59:44;96265.06;;;25.62;56.36
54994;BME280;40891;47.242;8.648;2022-07-29T12:02:11;96260.75;;;25.48;53.19
54994;BME280;40891;47.242;8.648;2022-07-29T12:04:53;96260.66;;;25.40;55.98
54994;BME280;40891;47.242;8.648;2022-07-29T12:07:32;96264.19;;;25.33;51.90
54994;BME280;40891;47.242;8.648;2022-07-29T12:09:59;96270.72;;;25.41;52.75
54994;BME280;40891;47.242;8.648;2022-07-29T12:12:25;96276.47;;;25.28;52.11
54994;BME280;40891;47.242;8.648;2022-07-29T12:14:51;96282.44;;;25.17;53.45
54994;BME280;40891;47.242;8.648;2022-07-29T12:17:29;96285.81;;;25.49;55.98
54994;BME280;40891;47.242;8.648;2022-07-29T12:19:57;96290.63;;;25.54;56.94
54994;BME280;40891;47.242;8.648;2022-07-29T12:22:32;96298.97;;;25.39;55.64
54994;BME280;40891;47.242;8.648;2022-07-29T12:25:16;96291.69;;;25.31;58.59
54994;BME280;40891;47.242;8.648;2022-07-29T12:27:44;96292.88;;;25.35;60.04
54994;BME280;40891;47.242;8.648;2022-07-29T12:30:14;96289.97;;;25.48;60.92
54994;BME280;40891;47.242;8.648;2022-07-29T12:32:47;96298.88;;;25.65;60.40
54994;BME280;40891;47.242;8.648;2022-07-29T12:35:15;96299.03;;;25.60;55.49
54994;BME280;40891;47.242;8.648;2022-07-29T12:37:43;96307.88;;;25.70;55.52
54994;BME280;40891;47.242;8.648;2022-07-29T12:40:10;96298.88;;;25.65;57.23
54994;BME280;40891;47.242;8.648;2022-07-29T12:42:36;96300.41;;;25.66;57.47
54994;BME280;40891;47.242;8.648;2022-07-29T12:45:03;96302.69;;;25.89;57.39
54994;BME280;40891;47.242;8.648;2022-07-29T12:47:29;96310.03;;;25.77;56.03
54994;BME280;40891;47.242;8.648;2022-07-29T12:50:12;96309.66;;;25.59;55.14
54994;BME280;40891;47.242;8.648;2022-07-29T12:52:43;96316.03;;;25.19;56.04
54994;BME280;40891;47.242;8.648;2022-07-29T12:55:09;96325.06;;;24.96;54.94
54994;BME280;40891;47.242;8.648;2022-07-29T12:57:47;96320.56;;;25.01;55.19
54994;BME280;40891;47.242;8.648;2022-07-29T13:00:14;96335.63;;;24.62;56.17
54994;BME280;40891;47.242;8.648;2022-07-29T13:02:41;96337.06;;;24.82;57.87
54994;BME280;40891;47.242;8.648;2022-07-29T13:05:08;96342.91;;;24.71;57.88
54994;BME280;40891;47.242;8.648;2022-07-29T13:07:35;96335.94;;;24.59;59.49
54994;BME280;40891;47.242;8.648;2022-07-29T13:10:18;96336.16;;;24.74;57.77
54994;BME280;40891;47.242;8.648;2022-07-29T13:15:33;96330.03;;;24.44;57.54
54994;BME280;40891;47.242;8.648;2022-07-29T13:17:59;96338.00;;;24.19;56.73
54994;BME280;40891;47.242;8.648;2022-07-29T13:20:26;96341.06;;;24.21;56.56
54994;BME280;40891;47.242;8.648;2022-07-29T13:22:55;96340.19;;;24.26;58.99
54994;BME280;40891;47.242;8.648;2022-07-29T13:25:31;96341.97;;;23.84;59.47
54994;BME280;40891;47.242;8.648;2022-07-29T13:27:58;96342.22;;;23.99;62.35
54994;BME280;40891;47.242;8.648;2022-07-29T13:30:24;96351.03;;;23.83;61.23
54994;BME280;40891;47.242;8.648;2022-07-29T13:32:51;96344.66;;;23.63;61.96
54994;BME280;40891;47.242;8.648;2022-07-29T13:35:18;96349.00;;;23.64;62.26
54994;BME280;40891;47.242;8.648;2022-07-29T13:37:44;96366.00;;;23.51;62.11
54994;BME280;40891;47.242;8.648;2022-07-29T13:40:10;96356.91;;;23.40;63.37
54994;BME280;40891;47.242;8.648;2022-07-29T13:42:36;96357.84;;;23.24;63.20
54994;BME280;40891;47.242;8.648;2022-07-29T13:45:03;96364.16;;;23.17;63.49
54994;BME280;40891;47.242;8.648;2022-07-29T13:47:29;96359.97;;;23.05;65.96
54994;BME280;40891;47.242;8.648;2022-07-29T13:49:55;96353.28;;;23.02;65.13
54994;BME280;40891;47.242;8.648;2022-07-29T13:52:20;96355.97;;;23.13;65.06
54994;BME280;40891;47.242;8.648;2022-07-29T13:54:46;96357.56;;;23.27;64.71
54994;BME280;40891;47.242;8.648;2022-07-29T13:57:12;96363.53;;;23.24;65.60